Time;durP1;ratioP1;P1;durP2;ratioP2;P2;SDS_P1;SDS_P2;PMS_P1;PMS_P2;Temp;Humidity;BMP_temperature;BMP_pressure;BME280_temperature;BME280_humidity;BME280_pressure;Samples;Min_cycle;Max_cycle;Signal;HPM_P1;HPM_P2
2023/07/07 00:02:09;;;;;;;58.25;52.97;;;;;;;19.12;100.00;100816.69;6123210;23;20030;-85
2023/07/07 00:04:40;;;;;;;139.68;129.88;;;;;;;19.30;100.00;100820.84;6123282;23;20110;-86
2023/07/07 00:07:07;;;;;;;148.52;138.52;;;;;;;19.65;100.00;100820.25;6123527;23;20029;-85
2023/07/07 00:09:35;;;;;;;130.48;121.55;;;;;;;19.45;100.00;100820.91;6123819;23;20029;-86
2023/07/07 00:12:04;;;;;;;133.20;124.05;;;;;;;19.46;100.00;100814.47;6123160;23;20020;-85
2023/07/07 00:14:31;;;;;;;49.60;44.90;;;;;;;19.38;100.00;100805.00;6122825;23;20018;-85
2023/07/07 00:17:01;;;;;;;48.25;43.85;;;;;;;19.51;100.00;100792.13;6123739;23;20032;-86
2023/07/07 00:19:32;;;;;;;74.65;68.57;;;;;;;19.58;100.00;100800.78;6123580;23;20022;-85
2023/07/07 00:22:03;;;;;;;129.13;120.22;;;;;;;19.48;100.00;100811.50;6123198;23;20029;-86
2023/07/07 00:24:30;;;;;;;133.20;124.20;;;;;;;19.47;100.00;100816.09;6123444;23;20054;-85
2023/07/07 00:26:57;;;;;;;128.82;119.85;;;;;;;19.23;100.00;100803.03;6123299;23;20480;-86
2023/07/07 00:29:25;;;;;;;127.25;118.20;;;;;;;18.70;100.00;100812.91;6122740;23;20014;-86
2023/07/07 00:31:52;;;;;;;134.80;125.38;;;;;;;19.13;100.00;100811.06;6123456;23;20025;-86
2023/07/07 00:34:19;;;;;;;125.10;116.43;;;;;;;19.40;100.00;100818.22;6123519;23;20375;-84
2023/07/07 00:36:56;;;;;;;50.60;45.95;;;;;;;19.37;100.00;100829.53;6123485;23;20044;-84
2023/07/07 00:39:24;;;;;;;57.10;51.80;;;;;;;19.27;100.00;100834.84;6123217;23;20024;-84
2023/07/07 00:41:54;;;;;;;56.53;51.55;;;;;;;19.39;100.00;100840.81;6123424;23;20014;-84
2023/07/07 00:44:28;;;;;;;59.05;54.15;;;;;;;18.40;100.00;100837.69;6123188;23;20022;-84
2023/07/07 00:46:55;;;;;;;130.50;121.20;;;;;;;18.77;100.00;100840.44;6123458;23;20369;-84
2023/07/07 00:49:24;;;;;;;125.53;116.28;;;;;;;18.96;100.00;100831.97;6123275;23;20368;-85
2023/07/07 00:51:56;;;;;;;137.43;127.72;;;;;;;18.73;100.00;100825.88;6123313;23;20025;-85
2023/07/07 00:54:28;;;;;;;111.67;103.73;;;;;;;19.09;100.00;100836.06;6123135;23;20091;-85
2023/07/07 00:56:58;;;;;;;131.93;122.82;;;;;;;18.54;100.00;100830.78;6123248;23;20372;-86
2023/07/07 00:59:31;;;;;;;126.63;118.03;;;;;;;19.09;100.00;100828.84;6093806;23;20030;-85
2023/07/07 01:02:16;;;;;;;113.25;105.63;;;;;;;18.99;100.00;100824.16;6093825;23;20438;-86
2023/07/07 01:04:49;;;;;;;148.73;138.50;;;;;;;18.67;100.00;100816.13;6093974;23;20026;-85
2023/07/07 01:07:23;;;;;;;98.20;91.03;;;;;;;19.17;100.00;100806.78;6094049;23;20461;-86
2023/07/07 01:09:54;;;;;;;101.80;94.85;;;;;;;19.12;100.00;100814.00;6094043;23;20053;-86
2023/07/07 01:12:23;;;;;;;111.85;104.13;;;;;;;19.20;100.00;100810.84;6094958;23;20469;-86
2023/07/07 01:14:58;;;;;;;118.90;110.43;;;;;;;19.22;100.00;100819.47;6095683;23;20022;-86
2023/07/07 01:17:35;;;;;;;48.55;43.80;;;;;;;19.31;100.00;100823.28;6095573;23;20018;-86
2023/07/07 01:20:12;;;;;;;54.65;49.25;;;;;;;19.37;100.00;100824.13;6095595;23;20350;-86
2023/07/07 01:23:17;;;;;;;47.53;43.13;;;;;;;18.58;100.00;100817.66;6095743;23;20026;-86
2023/07/07 01:26:03;;;;;;;51.40;46.58;;;;;;;19.01;100.00;100820.44;6059977;23;20018;-84
2023/07/07 01:28:53;;;;;;;50.80;45.80;;;;;;;19.21;100.00;100810.59;6095429;23;20375;-84
2023/07/07 01:31:32;;;;;;;46.38;41.85;;;;;;;19.17;100.00;100819.44;6095237;23;20053;-85
2023/07/07 01:34:00;;;;;;;57.22;51.95;;;;;;;18.43;100.00;100814.84;6095415;23;20026;-84
2023/07/07 01:36:30;;;;;;;50.38;45.63;;;;;;;18.78;100.00;100822.41;6095211;23;20026;-85
2023/07/07 01:38:57;;;;;;;52.95;48.08;;;;;;;18.44;100.00;100819.16;6095292;23;20022;-84
2023/07/07 01:41:29;;;;;;;56.88;51.38;;;;;;;18.30;100.00;100816.06;6095617;23;20018;-84
2023/07/07 01:44:01;;;;;;;59.90;54.13;;;;;;;18.72;100.00;100818.03;6095038;23;20018;-84
2023/07/07 01:46:30;;;;;;;;;;;;;;;18.62;100.00;100818.75;6096282;23;20049;-85
2023/07/07 01:49:07;;;;;;;57.55;52.25;;;;;;;18.46;100.00;100823.22;6095126;23;19917;-84
2023/07/07 01:51:43;;;;;;;58.35;53.13;;;;;;;18.69;100.00;100819.34;6094992;23;20097;-84
2023/07/07 01:54:13;;;;;;;56.55;51.45;;;;;;;18.72;100.00;100828.78;6094682;23;20487;-85
2023/07/07 01:56:47;;;;;;;62.05;56.20;;;;;;;18.40;100.00;100826.91;6095231;23;20022;-84
2023/07/07 01:59:16;;;;;;;56.05;50.95;;;;;;;18.63;100.00;100820.38;6122569;23;20029;-86
2023/07/07 02:01:45;;;;;;;53.67;48.88;;;;;;;18.84;100.00;100817.88;6124521;23;20022;-86
2023/07/07 02:04:19;;;;;;;56.20;51.05;;;;;;;18.81;100.00;100829.97;6124286;23;20018;-85
2023/07/07 02:06:46;;;;;;;60.00;54.60;;;;;;;18.77;100.00;100826.97;6124435;23;20022;-85
2023/07/07 02:09:14;;;;;;;59.42;53.90;;;;;;;18.67;100.00;100824.19;6124010;23;20047;-86
2023/07/07 02:11:41;;;;;;;52.20;47.53;;;;;;;18.85;100.00;100820.31;6124616;23;20049;-85
2023/07/07 02:14:08;;;;;;;50.85;46.15;;;;;;;18.80;100.00;100827.53;6124034;23;20022;-85
2023/07/07 02:16:36;;;;;;;59.92;54.72;;;;;;;18.96;100.00;100832.75;6123997;23;20025;-86
2023/07/07 02:19:12;;;;;;;55.20;50.22;;;;;;;18.46;100.00;100838.53;6124763;23;20029;-85
2023/07/07 02:21:41;;;;;;;53.65;48.80;;;;;;;18.49;100.00;100836.16;6124229;23;20055;-86
2023/07/07 02:24:08;;;;;;;57.47;51.72;;;;;;;18.63;100.00;100839.19;6123701;23;20373;-85
2023/07/07 02:26:36;;;;;;;55.83;49.53;;;;;;;18.82;100.00;100833.47;6124148;23;20371;-85
2023/07/07 02:29:03;;;;;;;63.17;57.15;;;;;;;18.92;100.00;100831.66;6124317;23;20018;-86
2023/07/07 02:31:36;;;;;;;56.08;50.47;;;;;;;18.83;100.00;100837.78;6124142;23;20018;-85
2023/07/07 02:34:03;;;;;;;55.63;50.22;;;;;;;18.44;100.00;100835.28;6124101;23;20096;-85
2023/07/07 02:36:37;;;;;;;58.53;52.80;;;;;;;18.60;100.00;100838.91;6124456;23;20464;-86
2023/07/07 02:39:05;;;;;;;56.40;51.40;;;;;;;18.73;100.00;100843.91;6123884;23;20460;-86
2023/07/07 02:41:32;;;;;;;79.70;73.75;;;;;;;18.77;100.00;100836.94;6123805;23;20048;-84
2023/07/07 02:43:59;;;;;;;76.00;70.22;;;;;;;18.78;100.00;100841.25;6123634;23;20022;-85
2023/07/07 02:46:26;;;;;;;89.32;82.68;;;;;;;18.92;100.00;100841.63;6124337;23;20472;-85
2023/07/07 02:48:53;;;;;;;76.07;69.93;;;;;;;18.84;100.00;100834.03;6123463;23;20022;-85
2023/07/07 02:51:20;;;;;;;77.43;71.72;;;;;;;18.21;100.00;100837.19;6123525;23;20022;-85
2023/07/07 02:53:48;;;;;;;71.10;65.25;;;;;;;18.02;100.00;100844.81;6123543;23;20093;-84
2023/07/07 02:56:15;;;;;;;67.63;62.42;;;;;;;18.66;100.00;100852.13;6123073;23;20461;-84
2023/07/07 02:58:43;;;;;;;80.05;74.43;;;;;;;18.52;100.00;100845.59;6123265;23;20022;-84
2023/07/07 03:01:13;;;;;;;75.20;69.50;;;;;;;18.65;100.00;100844.34;6123438;23;20094;-84
2023/07/07 03:03:43;;;;;;;72.25;66.75;;;;;;;18.53;100.00;100855.25;6123899;23;20372;-84
2023/07/07 03:06:14;;;;;;;73.50;67.90;;;;;;;18.69;100.00;100858.88;6123560;23;20026;-85
2023/07/07 03:08:49;;;;;;;84.80;78.55;;;;;;;18.79;100.00;100858.19;6123923;23;20022;-85
2023/07/07 03:11:18;;;;;;;83.18;77.18;;;;;;;18.29;100.00;100865.53;6123547;23;20495;-84
2023/07/07 03:13:46;;;;;;;47.13;42.92;;;;;;;18.00;100.00;100862.25;6123968;23;20077;-85
2023/07/07 03:16:20;;;;;;;45.42;41.22;;;;;;;18.51;100.00;100868.16;6124218;23;20498;-84
2023/07/07 03:18:53;;;;;;;46.70;42.20;;;;;;;18.84;100.00;100869.81;6123467;23;20018;-84
2023/07/07 03:21:22;;;;;;;47.47;42.95;;;;;;;18.81;100.00;100866.81;6124112;23;20140;-85
2023/07/07 03:23:57;;;;;;;45.15;41.13;;;;;;;19.02;100.00;100865.91;6123846;23;20032;-84
2023/07/07 03:26:27;;;;;;;45.30;40.95;;;;;;;19.14;100.00;100860.34;6123642;23;20058;-84
2023/07/07 03:28:58;;;;;;;46.03;41.55;;;;;;;18.92;100.00;100863.16;6123718;23;20022;-85
2023/07/07 03:31:36;;;;;;;46.60;42.20;;;;;;;19.12;100.00;100851.69;6123612;23;20022;-84
2023/07/07 03:34:22;;;;;;;48.00;43.47;;;;;;;19.33;100.00;100866.91;6123513;23;20097;-84
2023/07/07 03:36:49;;;;;;;94.68;87.00;;;;;;;19.33;100.00;100868.78;6123294;23;20028;-84
2023/07/07 03:39:24;;;;;;;100.22;91.20;;;;;;;19.27;100.00;100862.56;6122775;23;20448;-84
2023/07/07 03:42:00;;;;;;;87.60;79.78;;;;;;;19.18;100.00;100861.44;6123088;23;20025;-84
2023/07/07 03:44:28;;;;;;;55.72;46.17;;;;;;;19.14;100.00;100863.84;6122825;23;20036;-84
2023/07/07 03:46:55;;;;;;;52.10;46.13;;;;;;;19.30;100.00;100861.25;6124139;23;20021;-84
2023/07/07 03:49:22;;;;;;;50.28;45.13;;;;;;;19.57;100.00;100856.53;6123055;23;20014;-85
2023/07/07 03:51:49;;;;;;;49.03;43.88;;;;;;;19.61;100.00;100862.22;6123438;23;20028;-84
2023/07/07 03:54:16;;;;;;;52.63;47.08;;;;;;;19.75;100.00;100868.78;6123710;23;20431;-84
2023/07/07 03:56:44;;;;;;;57.72;52.10;;;;;;;19.55;100.00;100865.97;6123694;23;20105;-84
2023/07/07 03:59:11;;;;;;;58.95;51.35;;;;;;;19.70;100.00;100867.94;6122907;23;20028;-85
2023/07/07 04:01:38;;;;;;;65.57;54.55;;;;;;;19.61;100.00;100881.91;6123388;23;20014;-85
2023/07/07 04:04:05;;;;;;;61.22;54.83;;;;;;;19.99;100.00;100871.03;6123401;23;20022;-84
2023/07/07 04:06:33;;;;;;;58.42;52.85;;;;;;;20.06;100.00;100875.09;6123276;23;20018;-85
2023/07/07 04:09:00;;;;;;;53.25;48.25;;;;;;;20.27;100.00;100867.88;6122602;23;20037;-85
2023/07/07 04:11:27;;;;;;;54.00;48.75;;;;;;;20.34;100.00;100856.81;6123641;23;20028;-85
2023/07/07 04:13:56;;;;;;;53.22;48.25;;;;;;;20.46;100.00;100862.78;6123656;23;20024;-85
2023/07/07 04:16:25;;;;;;;49.53;44.28;;;;;;;20.52;100.00;100864.44;6123155;23;20024;-85
2023/07/07 04:18:57;;;;;;;47.55;43.35;;;;;;;20.49;100.00;100847.94;6123461;23;20018;-85
2023/07/07 04:21:25;;;;;;;45.70;41.60;;;;;;;20.68;100.00;100865.25;6123062;23;20089;-85
2023/07/07 04:23:54;;;;;;;45.38;41.17;;;;;;;20.77;100.00;100857.41;6123237;23;20060;-85
2023/07/07 04:26:31;;;;;;;47.90;43.33;;;;;;;20.84;100.00;100859.84;6122835;23;20022;-85
2023/07/07 04:29:01;;;;;;;48.55;43.63;;;;;;;21.07;100.00;100858.47;6122684;23;20145;-85
2023/07/07 04:31:30;;;;;;;46.05;41.65;;;;;;;21.01;100.00;100863.06;6122532;23;20025;-84
2023/07/07 04:33:58;;;;;;;46.40;41.70;;;;;;;21.33;100.00;100870.84;6122865;23;20018;-85
2023/07/07 04:36:25;;;;;;;45.70;41.15;;;;;;;21.45;100.00;100865.16;6122886;23;20026;-85
2023/07/07 04:38:52;;;;;;;44.65;40.58;;;;;;;21.57;100.00;100873.75;6123088;23;20537;-84
2023/07/07 04:41:22;;;;;;;45.88;41.58;;;;;;;21.60;100.00;100870.50;6121926;23;20464;-85
2023/07/07 04:43:52;;;;;;;48.22;43.72;;;;;;;21.77;100.00;100880.19;6122071;23;20061;-85
2023/07/07 04:46:29;;;;;;;50.55;45.85;;;;;;;21.89;100.00;100878.78;6122168;23;20054;-85
2023/07/07 04:48:57;;;;;;;48.58;44.17;;;;;;;22.17;100.00;100877.31;6123091;23;20037;-85
2023/07/07 04:51:24;;;;;;;46.28;41.97;;;;;;;22.10;100.00;100875.97;6123958;23;20018;-84
2023/07/07 04:53:55;;;;;;;48.17;43.80;;;;;;;22.01;100.00;100872.25;6124464;23;20017;-85
2023/07/07 04:56:29;;;;;;;46.53;42.10;;;;;;;22.40;100.00;100873.09;6123790;23;20409;-85
2023/07/07 04:58:58;;;;;;;44.50;40.65;;;;;;;22.46;100.00;100875.78;6123720;23;20021;-85
2023/07/07 05:01:28;;;;;;;40.70;37.20;;;;;;;22.58;100.00;100871.63;6124174;23;20414;-85
2023/07/07 05:03:58;;;;;;;39.83;36.00;;;;;;;22.84;100.00;100883.06;6123768;23;20024;-85
2023/07/07 05:06:27;;;;;;;41.55;37.50;;;;;;;22.74;100.00;100877.72;6081583;23;20095;-85
2023/07/07 05:08:54;;;;;;;41.95;38.15;;;;;;;23.11;100.00;100878.25;6124155;23;20371;-85
2023/07/07 05:11:24;;;;;;;41.70;37.65;;;;;;;22.87;100.00;100865.44;6123972;23;20073;-85
2023/07/07 05:13:52;;;;;;;40.85;36.92;;;;;;;23.10;100.00;100863.91;6123776;23;20088;-84
2023/07/07 05:16:32;;;;;;;42.72;38.72;;;;;;;23.38;100.00;100864.94;6122725;23;20022;-85
2023/07/07 05:19:00;;;;;;;41.83;37.92;;;;;;;23.24;100.00;100862.13;6123159;23;20018;-84
2023/07/07 05:21:27;;;;;;;42.05;37.88;;;;;;;23.18;100.00;100863.28;6123251;23;20022;-85
2023/07/07 05:24:01;;;;;;;42.85;39.05;;;;;;;23.49;100.00;100869.16;6123374;23;20029;-85
2023/07/07 05:26:28;;;;;;;43.53;39.53;;;;;;;23.91;100.00;100864.09;6123655;23;20014;-85
2023/07/07 05:29:08;;;;;;;43.38;39.65;;;;;;;24.39;100.00;100861.25;6123331;23;20097;-85
2023/07/07 05:31:37;;;;;;;43.75;39.90;;;;;;;24.47;100.00;100854.34;6123902;23;20018;-85
2023/07/07 05:34:04;;;;;;;46.70;42.60;;;;;;;24.76;100.00;100857.66;6124122;23;20022;-85
2023/07/07 05:36:31;;;;;;;42.38;38.88;;;;;;;24.81;100.00;100854.88;6123967;23;20018;-84
2023/07/07 05:38:58;;;;;;;40.15;36.38;;;;;;;24.86;100.00;100862.13;6123778;23;20022;-84
2023/07/07 05:41:25;;;;;;;39.42;36.05;;;;;;;24.98;100.00;100862.44;6124060;23;20024;-85
2023/07/07 05:43:52;;;;;;;39.28;35.97;;;;;;;25.28;100.00;100865.75;6124416;23;20353;-85
2023/07/07 05:46:21;;;;;;;36.63;33.28;;;;;;;25.51;100.00;100862.03;6124856;23;20100;-85
2023/07/07 05:48:49;;;;;;;37.30;34.50;;;;;;;25.50;100.00;100860.41;6124410;23;20026;-85
2023/07/07 05:51:20;;;;;;;36.08;32.80;;;;;;;25.41;100.00;100867.66;6124624;23;20077;-85
2023/07/07 05:53:47;;;;;;;36.33;33.72;;;;;;;25.62;100.00;100867.25;6124636;23;20076;-85
2023/07/07 05:56:19;;;;;;;34.47;31.48;;;;;;;25.67;100.00;100865.22;6124163;23;20058;-84
2023/07/07 05:58:46;;;;;;;33.90;31.00;;;;;;;25.85;100.00;100862.72;6124035;23;20023;-84
2023/07/07 06:01:13;;;;;;;33.25;30.45;;;;;;;26.01;100.00;100856.63;6124505;23;20021;-85
2023/07/07 06:03:41;;;;;;;31.20;28.73;;;;;;;25.95;100.00;100860.56;6124931;23;20029;-84
2023/07/07 06:06:09;;;;;;;34.30;31.25;;;;;;;26.28;100.00;100872.06;6124515;23;20438;-84
2023/07/07 06:08:36;;;;;;;35.88;32.97;;;;;;;25.84;100.00;100853.75;6124103;23;20101;-84
2023/07/07 06:11:03;;;;;;;37.33;34.20;;;;;;;25.85;100.00;100852.66;6123866;23;20022;-85
2023/07/07 06:13:30;;;;;;;39.72;35.90;;;;;;;25.88;100.00;100865.63;6123877;23;20468;-85
2023/07/07 06:15:58;;;;;;;37.47;34.70;;;;;;;25.64;100.00;100859.59;6121898;23;20040;-85
2023/07/07 06:18:25;;;;;;;36.20;33.50;;;;;;;25.96;100.00;100864.94;6121701;23;20061;-85
2023/07/07 06:20:55;;;;;;;33.00;30.38;;;;;;;26.17;100.00;100870.72;6123520;23;20049;-85
2023/07/07 06:23:23;;;;;;;34.67;32.03;;;;;;;26.21;100.00;100868.97;6123292;23;20029;-85
2023/07/07 06:25:52;;;;;;;33.97;31.17;;;;;;;25.63;100.00;100871.56;6123365;23;20029;-85
2023/07/07 06:28:20;;;;;;;35.45;32.85;;;;;;;25.76;100.00;100870.75;6123914;23;20022;-85
2023/07/07 06:30:48;;;;;;;31.23;28.90;;;;;;;26.02;100.00;100865.59;6122559;23;20014;-85
2023/07/07 06:33:18;;;;;;;31.27;28.88;;;;;;;26.23;100.00;100855.88;6123574;23;20486;-85
2023/07/07 06:35:46;;;;;;;29.52;27.42;;;;;;;26.30;100.00;100860.91;6123690;23;20042;-85
2023/07/07 06:38:15;;;;;;;30.80;28.40;;;;;;;26.56;100.00;100854.84;6123209;23;20025;-84
2023/07/07 06:40:43;;;;;;;25.13;23.42;;;;;;;26.83;100.00;100851.19;6123033;23;20025;-85
2023/07/07 06:43:10;;;;;;;23.88;22.38;;;;;;;27.03;100.00;100853.38;6124232;23;20479;-84
2023/07/07 06:45:37;;;;;;;23.45;21.77;;;;;;;27.23;100.00;100846.56;6123871;23;20093;-85
2023/07/07 06:48:05;;;;;;;21.27;19.83;;;;;;;27.31;100.00;100842.28;6122491;23;20096;-85
2023/07/07 06:50:35;;;;;;;23.40;21.73;;;;;;;27.31;100.00;100851.28;6122902;23;20029;-84
2023/07/07 06:53:02;;;;;;;24.23;22.33;;;;;;;27.52;100.00;100853.44;6123274;23;20461;-84
2023/07/07 06:55:30;;;;;;;22.38;20.73;;;;;;;27.64;100.00;100851.69;6123318;23;20423;-85
2023/07/07 06:57:58;;;;;;;25.02;23.20;;;;;;;27.72;100.00;100843.84;6122282;23;20033;-85
2023/07/07 07:00:25;;;;;;;27.15;24.98;;;;;;;27.36;100.00;100837.50;6122817;23;20105;-85
2023/07/07 07:02:55;;;;;;;23.75;22.13;;;;;;;27.44;100.00;100838.63;6123486;23;20375;-85
2023/07/07 07:05:22;;;;;;;26.15;24.35;;;;;;;27.51;100.00;100830.00;6122632;23;20018;-85
2023/07/07 07:08:00;;;;;;;23.20;21.50;;;;;;;27.59;100.00;100843.66;6123138;23;20018;-86
2023/07/07 07:10:27;;;;;;;22.40;20.80;;;;;;;27.43;100.00;100847.94;6122601;23;20018;-85
2023/07/07 07:13:00;;;;;;;23.98;22.17;;;;;;;27.52;100.00;100843.31;6122783;23;20037;-84
2023/07/07 07:15:27;;;;;;;23.42;21.83;;;;;;;27.47;100.00;100835.28;6123195;23;20021;-84
2023/07/07 07:17:54;;;;;;;23.35;21.30;;;;;;;27.62;100.00;100836.75;6122940;23;20507;-84
2023/07/07 07:20:23;;;;;;;25.23;23.52;;;;;;;28.08;100.00;100832.69;6123491;23;20483;-85
2023/07/07 07:22:50;;;;;;;24.60;22.80;;;;;;;27.98;100.00;100833.78;6124134;23;20021;-84
2023/07/07 07:25:17;;;;;;;21.52;20.20;;;;;;;28.06;100.00;100835.72;6123050;23;20499;-84
2023/07/07 07:27:45;;;;;;;24.35;22.95;;;;;;;28.03;100.00;100830.09;6123377;23;20099;-84
2023/07/07 07:30:15;;;;;;;27.38;25.70;;;;;;;28.13;100.00;100837.97;6123165;23;20049;-84
2023/07/07 07:32:42;;;;;;;24.40;22.90;;;;;;;28.23;100.00;100831.38;6123452;23;20022;-85
2023/07/07 07:35:11;;;;;;;25.67;23.98;;;;;;;28.44;100.00;100840.56;6123351;23;20744;-85
2023/07/07 07:37:38;;;;;;;24.85;23.15;;;;;;;28.53;100.00;100837.78;6123307;23;20029;-85
2023/07/07 07:40:06;;;;;;;25.25;23.60;;;;;;;29.05;100.00;100832.22;6122852;23;20514;-84
2023/07/07 07:42:33;;;;;;;28.60;26.73;;;;;;;28.98;100.00;100837.34;6122228;23;20022;-84
2023/07/07 07:45:00;;;;;;;25.67;23.98;;;;;;;28.82;100.00;100833.56;6122806;23;20472;-85
2023/07/07 07:47:28;;;;;;;24.40;22.77;;;;;;;28.80;100.00;100839.34;6122493;23;20022;-85
2023/07/07 07:49:55;;;;;;;24.40;22.50;;;;;;;28.79;100.00;100835.00;6123036;23;20097;-84
2023/07/07 07:52:23;;;;;;;23.77;22.08;;;;;;;29.15;100.00;100842.00;6122962;23;20071;-84
2023/07/07 07:54:50;;;;;;;23.45;21.75;;;;;;;28.86;100.00;100829.03;6123149;23;20025;-84
2023/07/07 07:57:17;;;;;;;25.48;23.77;;;;;;;28.80;100.00;100831.13;6122364;23;20390;-84
2023/07/07 07:59:44;;;;;;;26.60;24.85;;;;;;;28.69;100.00;100827.97;6123489;23;20025;-84
2023/07/07 08:02:12;;;;;;;24.63;23.02;;;;;;;28.95;100.00;100829.81;6123080;23;20028;-85
2023/07/07 08:04:40;;;;;;;25.35;23.55;;;;;;;29.10;100.00;100837.50;6123170;23;20018;-84
2023/07/07 08:07:07;;;;;;;26.80;24.90;;;;;;;29.32;100.00;100836.47;6123125;23;20097;-84
2023/07/07 08:09:35;;;;;;;25.30;23.70;;;;;;;29.44;100.00;100830.25;6123362;23;20057;-84
2023/07/07 08:12:03;;;;;;;24.33;22.73;;;;;;;29.50;100.00;100833.59;6122897;23;20025;-84
2023/07/07 08:14:32;;;;;;;27.52;25.52;;;;;;;29.63;100.00;100833.41;6123213;23;20021;-86
2023/07/07 08:17:04;;;;;;;26.45;24.65;;;;;;;29.63;100.00;100838.88;6123437;23;20014;-84
2023/07/07 08:19:32;;;;;;;26.40;23.97;;;;;;;29.67;100.00;100844.47;6122839;23;20046;-84
2023/07/07 08:22:00;;;;;;;28.30;26.13;;;;;;;29.81;100.00;100842.28;6124998;23;20049;-84
2023/07/07 08:24:29;;;;;;;28.80;26.50;;;;;;;29.45;100.00;100832.66;6125287;23;20431;-86
2023/07/07 08:26:56;;;;;;;29.35;27.25;;;;;;;29.81;100.00;100833.28;6125319;23;20464;-85
2023/07/07 08:29:23;;;;;;;29.13;26.92;;;;;;;29.99;100.00;100839.44;6125481;23;20018;-84
2023/07/07 08:31:50;;;;;;;30.58;28.38;;;;;;;29.88;100.00;100837.09;6123963;23;20018;-85
2023/07/07 08:34:27;;;;;;;27.55;25.55;;;;;;;29.70;100.00;100835.59;6124884;23;20030;-83
2023/07/07 08:37:03;;;;;;;27.60;25.50;;;;;;;29.62;100.00;100836.44;6125010;23;20029;-83
2023/07/07 08:39:41;;;;;;;28.40;25.88;;;;;;;30.04;100.00;100840.00;6125264;23;20416;-86
2023/07/07 08:42:21;;;;;;;25.00;23.23;;;;;;;30.30;100.00;100839.03;6125232;23;20018;-85
2023/07/07 08:44:48;;;;;;;25.88;24.08;;;;;;;29.97;100.00;100841.69;6124623;23;20026;-84
2023/07/07 08:47:32;;;;;;;25.38;23.48;;;;;;;29.38;100.00;100845.25;6125034;23;20028;-84
2023/07/07 08:50:05;;;;;;;25.73;23.65;;;;;;;30.30;100.00;100839.03;6125092;23;20029;-84
2023/07/07 08:52:42;;;;;;;26.30;24.17;;;;;;;30.56;100.00;100827.81;6125640;23;20018;-85
2023/07/07 08:55:29;;;;;;;26.77;24.88;;;;;;;31.06;100.00;100823.25;6126144;23;20032;-85
2023/07/07 08:58:01;;;;;;;27.10;25.20;;;;;;;30.44;100.00;100835.97;6122204;23;20085;-85
2023/07/07 09:00:39;;;;;;;29.13;27.02;;;;;;;30.24;100.00;100832.97;6125714;23;20028;-86
2023/07/07 09:03:25;;;;;;;27.92;25.52;;;;;;;29.59;100.00;100829.69;6125535;23;20109;-86
2023/07/07 09:06:02;;;;;;;31.30;28.92;;;;;;;30.18;100.00;100828.00;6125742;23;20017;-86
2023/07/07 09:08:44;;;;;;;28.98;25.90;;;;;;;30.33;100.00;100832.88;6125617;23;20022;-86
2023/07/07 09:11:30;;;;;;;28.73;26.25;;;;;;;30.32;100.00;100834.81;6125567;23;20101;-86
2023/07/07 09:14:21;;;;;;;29.60;27.13;;;;;;;29.68;100.00;100835.13;6125517;23;20029;-86
2023/07/07 09:17:16;;;;;;;27.42;24.92;;;;;;;29.94;100.00;100832.22;6125452;23;20026;-86
2023/07/07 09:19:49;;;;;;;28.30;26.08;;;;;;;29.56;100.00;100832.28;6125958;23;20021;-87
2023/07/07 09:22:23;;;;;;;26.95;24.65;;;;;;;29.67;100.00;100833.53;6125399;23;20022;-89
2023/07/07 09:24:59;;;;;;;27.95;25.63;;;;;;;30.40;100.00;100824.91;6125322;23;20024;-88
2023/07/07 09:27:35;;;;;;;25.92;23.63;;;;;;;29.73;100.00;100823.19;6125813;23;20028;-87
2023/07/07 09:30:15;;;;;;;27.70;25.33;;;;;;;29.95;100.00;100824.78;6125752;23;20060;-86
2023/07/07 09:32:45;;;;;;;26.33;24.02;;;;;;;30.29;100.00;100818.28;6125040;23;20032;-85
2023/07/07 09:35:14;;;;;;;27.55;25.25;;;;;;;30.55;100.00;100827.00;6124185;23;20476;-84
2023/07/07 09:37:48;;;;;;;26.55;24.45;;;;;;;30.77;100.00;100816.78;6124178;23;20018;-86
2023/07/07 09:40:22;;;;;;;27.33;25.15;;;;;;;30.20;100.00;100820.22;6124630;23;20018;-85
2023/07/07 09:43:05;;;;;;;28.05;25.90;;;;;;;30.50;100.00;100816.28;6124462;23;20024;-87
2023/07/07 09:45:55;;;;;;;27.33;25.13;;;;;;;30.48;100.00;100812.28;6126118;23;20026;-88
2023/07/07 09:48:41;;;;;;;26.55;24.42;;;;;;;31.26;100.00;100808.63;6125292;23;20372;-87
2023/07/07 09:51:15;;;;;;;26.55;24.48;;;;;;;30.36;100.00;100815.78;6124963;23;20093;-84
2023/07/07 09:53:42;;;;;;;29.20;26.95;;;;;;;30.41;100.00;100810.09;6124417;23;20025;-85
2023/07/07 09:56:28;;;;;;;26.65;24.48;;;;;;;30.33;100.00;100819.97;6125726;23;20029;-88
2023/07/07 09:59:02;;;;;;;25.80;23.73;;;;;;;30.45;100.00;100815.69;6124428;23;20349;-82
2023/07/07 10:01:45;;;;;;;24.80;22.88;;;;;;;30.42;100.00;100819.09;6124524;23;20026;-88
2023/07/07 10:04:16;;;;;;;25.27;23.38;;;;;;;30.56;100.00;100811.34;6124156;23;20033;-84
2023/07/07 10:06:54;;;;;;;24.27;22.17;;;;;;;30.56;100.00;100816.84;6124297;23;20025;-85
2023/07/07 10:09:21;;;;;;;25.25;23.15;;;;;;;30.12;100.00;100830.13;6125153;23;20029;-87
2023/07/07 10:11:52;;;;;;;28.25;26.15;;;;;;;30.53;100.00;100818.34;6125553;23;20022;-88
2023/07/07 10:14:31;;;;;;;27.60;25.30;;;;;;;30.55;100.00;100807.03;6125546;23;20022;-87
2023/07/07 10:17:11;;;;;;;26.80;24.70;;;;;;;29.94;100.00;100809.50;6125480;23;20018;-88
2023/07/07 10:19:43;;;;;;;28.52;26.42;;;;;;;30.15;100.00;100809.50;6125809;23;20022;-88
2023/07/07 10:22:11;;;;;;;31.73;29.23;;;;;;;29.98;100.00;100813.97;6125680;23;20097;-88
2023/07/07 10:24:38;;;;;;;31.73;29.30;;;;;;;29.87;100.00;100807.31;6125513;23;20021;-87
2023/07/07 10:27:22;;;;;;;27.45;25.45;;;;;;;31.24;100.00;100797.19;6125761;23;20018;-87
2023/07/07 10:29:57;;;;;;;29.65;27.17;;;;;;;31.41;100.00;100796.19;6125267;23;20088;-87
2023/07/07 10:32:25;;;;;;;28.05;25.77;;;;;;;31.49;100.00;100789.75;6125427;23;20077;-87
2023/07/07 10:34:55;;;;;;;29.90;27.73;;;;;;;31.88;100.00;100784.63;6125165;23;20022;-87
2023/07/07 10:37:26;;;;;;;29.00;26.90;;;;;;;30.57;100.00;100793.78;6125893;23;20097;-88
2023/07/07 10:39:56;;;;;;;27.48;25.20;;;;;;;31.64;100.00;100785.50;6125475;23;20128;-87
2023/07/07 10:42:25;;;;;;;27.65;25.42;;;;;;;30.97;100.00;100782.22;6125759;23;20024;-88
2023/07/07 10:44:56;;;;;;;31.02;28.42;;;;;;;31.25;100.00;100766.66;6125457;23;20097;-87
2023/07/07 10:47:53;;;;;;;32.95;30.23;;;;;;;32.39;100.00;100768.38;6125552;23;20018;-87
2023/07/07 10:50:25;;;;;;;29.92;27.38;;;;;;;31.25;100.00;100769.41;6057578;23;20041;-83
2023/07/07 10:53:15;;;;;;;32.25;29.55;;;;;;;31.43;100.00;100760.94;6124150;23;20076;-85
2023/07/07 10:56:11;;;;;;;31.52;29.23;;;;;;;32.28;100.00;100751.59;6123557;23;20041;-85
2023/07/07 10:58:59;;;;;;;28.67;26.67;;;;;;;30.66;100.00;100755.34;6123506;23;20369;-85
2023/07/07 11:01:35;;;;;;;29.48;26.80;;;;;;;32.44;100.00;100748.94;6123321;23;20018;-87
2023/07/07 11:04:25;;;;;;;29.80;27.60;;;;;;;32.24;100.00;100755.44;6123894;23;20097;-84
2023/07/07 11:07:05;;;;;;;32.72;30.20;;;;;;;31.58;100.00;100752.00;6123295;23;20022;-85
2023/07/07 11:09:49;;;;;;;33.53;31.08;;;;;;;31.03;100.00;100753.44;6124364;23;20025;-85
2023/07/07 11:12:28;;;;;;;27.90;25.67;;;;;;;32.21;100.00;100743.19;6125397;23;20494;-87
2023/07/07 11:15:07;;;;;;;28.92;26.65;;;;;;;32.26;100.00;100731.16;6123493;23;20025;-85
2023/07/07 11:17:49;;;;;;;29.42;27.08;;;;;;;32.43;100.00;100738.25;6123463;23;20022;-84
2023/07/07 11:20:33;;;;;;;26.70;24.60;;;;;;;32.73;100.00;100720.19;6123883;23;20692;-86